Terminal Aerodrome Forecast
Issued by NWS Sioux Falls, SD

Home | Current Version | Previous Version | Text Only | Print | Product List | Glossary Off
Versions: 1 2 3 4 5 6 7 8 9 10 11 12 13 14 15 16 17 18 19

000
FTUS43 KFSD 222320
TAFFSD
TAF
KFSD 222320Z 2300/2324 34010KT P6SM SKC
     FM230300 VRB03KT P6SM SKC
     FM231100 09004KT P6SM SCT070
     FM231600 15011KT P6SM SCT150=

USA.gov is the U.S. government's official web portal to all federal, state and local government web resources and services.